createdAt,value
2022-09-14T00:00:44.805Z,15.64
2022-09-14T00:03:11.586Z,15.62
2022-09-14T00:05:38.264Z,15.64
2022-09-14T00:08:04.853Z,15.55
2022-09-14T00:10:31.321Z,15.46
2022-09-14T00:12:58.163Z,15.56
2022-09-14T00:15:24.576Z,15.52
2022-09-14T00:17:50.930Z,15.49
2022-09-14T00:20:17.399Z,15.45
2022-09-14T00:22:43.981Z,15.33
2022-09-14T00:25:10.370Z,15.33
2022-09-14T00:27:36.859Z,15.32
2022-09-14T00:30:03.859Z,15.29
2022-09-14T00:32:30.275Z,15.23
2022-09-14T00:34:56.985Z,15.21
2022-09-14T00:37:23.349Z,15.06
2022-09-14T00:39:50.353Z,15.17
2022-09-14T00:42:19.503Z,15.16
2022-09-14T00:44:45.786Z,15.13
2022-09-14T00:47:14.978Z,14.92
2022-09-14T00:49:43.309Z,15.05
2022-09-14T00:52:16.092Z,15.08
2022-09-14T00:54:48.516Z,15.04
2022-09-14T00:57:17.174Z,14.82
2022-09-14T00:59:44.883Z,14.98
2022-09-14T01:02:14.903Z,14.95
2022-09-14T01:04:43.274Z,14.85
2022-09-14T01:07:33.528Z,14.91
2022-09-14T01:10:21.876Z,14.88
2022-09-14T01:13:06.260Z,14.81
2022-09-14T01:15:59.639Z,14.75
2022-09-14T01:18:36.210Z,14.66
2022-09-14T01:21:12.316Z,14.52
2022-09-14T01:24:14.689Z,14.30
2022-09-14T01:26:56.195Z,14.51
2022-09-14T01:29:44.287Z,14.47
2022-09-14T01:32:28.939Z,14.42
2022-09-14T01:35:14.125Z,14.38
2022-09-14T01:37:57.353Z,14.36
2022-09-14T01:40:37.303Z,14.30
2022-09-14T01:43:06.538Z,14.28
2022-09-14T01:45:34.770Z,14.28
2022-09-14T01:48:04.623Z,14.39
2022-09-14T01:50:41.554Z,14.36
2022-09-14T01:53:19.196Z,14.40
2022-09-14T01:56:10.883Z,14.43
2022-09-14T01:58:47.024Z,14.42
2022-09-14T02:01:20.226Z,14.32
2022-09-14T02:03:53.256Z,14.37
2022-09-14T02:06:44.123Z,14.38
2022-09-14T02:09:16.539Z,14.22
2022-09-14T02:11:43.114Z,14.28
2022-09-14T02:14:09.891Z,14.09
2022-09-14T02:16:36.588Z,14.21
2022-09-14T02:19:03.428Z,14.27
2022-09-14T02:21:31.837Z,14.21
2022-09-14T02:23:59.278Z,14.25
2022-09-14T02:26:26.270Z,14.23
2022-09-14T02:28:56.098Z,14.05
2022-09-14T02:31:25.515Z,14.25
2022-09-14T02:34:32.329Z,14.24
2022-09-14T02:37:16.916Z,14.23
2022-09-14T02:40:01.692Z,14.18
2022-09-14T02:42:38.791Z,14.13
2022-09-14T02:45:26.532Z,14.03
2022-09-14T02:48:21.310Z,13.91
2022-09-14T02:51:07.775Z,14.01
2022-09-14T02:53:45.956Z,14.08
2022-09-14T02:56:13.951Z,13.97
2022-09-14T02:58:44.055Z,14.02
2022-09-14T03:01:14.195Z,13.83
2022-09-14T03:03:40.642Z,14.08
2022-09-14T03:06:07.078Z,13.87
2022-09-14T03:08:33.688Z,14.00
2022-09-14T03:11:00.013Z,14.03
2022-09-14T03:13:26.387Z,14.11
2022-09-14T03:15:53.519Z,14.20
2022-09-14T03:18:20.425Z,14.17
2022-09-14T03:20:46.916Z,14.21
2022-09-14T03:23:14.147Z,14.02
2022-09-14T03:25:46.921Z,14.22
2022-09-14T03:28:13.301Z,14.17
2022-09-14T03:30:39.955Z,14.02
2022-09-14T03:33:06.673Z,14.14
2022-09-14T03:35:33.474Z,14.08
2022-09-14T03:38:00.326Z,14.01
2022-09-14T03:40:27.523Z,14.07
2022-09-14T03:43:04.591Z,14.05
2022-09-14T03:45:30.983Z,13.94
2022-09-14T03:47:57.412Z,13.89
2022-09-14T03:50:23.838Z,13.85
2022-09-14T03:52:50.596Z,13.73
2022-09-14T03:55:17.045Z,13.82
2022-09-14T03:57:43.418Z,13.72
2022-09-14T04:00:11.355Z,13.79
2022-09-14T04:02:38.348Z,13.78
2022-09-14T04:05:05.240Z,13.69
2022-09-14T04:07:31.670Z,13.71
2022-09-14T04:09:58.388Z,13.85
2022-09-14T04:12:24.927Z,13.88
2022-09-14T04:14:51.384Z,13.86
2022-09-14T04:17:17.797Z,13.96
2022-09-14T04:19:44.404Z,13.92
2022-09-14T04:22:10.777Z,14.02
2022-09-14T04:24:37.252Z,14.06
2022-09-14T04:27:03.718Z,13.99
2022-09-14T04:29:30.581Z,14.07
2022-09-14T04:31:57.523Z,14.18
2022-09-14T04:34:26.374Z,14.27
2022-09-14T04:36:52.915Z,14.21
2022-09-14T04:39:19.569Z,14.38
2022-09-14T04:41:45.992Z,14.43
2022-09-14T04:44:12.556Z,14.35
2022-09-14T04:46:46.607Z,14.56
2022-09-14T04:49:15.668Z,14.63
2022-09-14T04:51:42.178Z,14.61
2022-09-14T04:54:12.556Z,14.75
2022-09-14T04:56:38.932Z,14.82
2022-09-14T04:59:05.887Z,14.86
2022-09-14T05:01:37.886Z,14.93
2022-09-14T05:04:05.808Z,14.96
2022-09-14T05:06:34.007Z,15.04
2022-09-14T05:09:02.028Z,15.09
2022-09-14T05:11:34.764Z,15.14
2022-09-14T05:14:01.904Z,15.08
2022-09-14T05:16:31.663Z,15.20
2022-09-14T05:19:03.786Z,15.30
2022-09-14T05:21:32.059Z,15.33
2022-09-14T05:24:00.801Z,15.37
2022-09-14T05:26:29.394Z,15.41
2022-09-14T05:28:58.995Z,15.44
2022-09-14T05:31:26.680Z,15.24
2022-09-14T05:33:53.840Z,15.40
2022-09-14T05:36:20.705Z,15.43
2022-09-14T05:38:47.132Z,15.57
2022-09-14T05:41:14.965Z,15.58
2022-09-14T05:43:42.274Z,15.56
2022-09-14T05:46:12.671Z,15.69
2022-09-14T05:48:40.001Z,15.64
2022-09-14T05:51:10.160Z,15.69
2022-09-14T05:53:36.575Z,15.78
2022-09-14T05:56:11.784Z,15.83
2022-09-14T05:58:39.294Z,15.76
2022-09-14T06:01:19.017Z,15.90
2022-09-14T06:03:46.713Z,15.89
2022-09-14T06:06:15.823Z,15.98
2022-09-14T06:08:42.504Z,16.02
2022-09-14T06:11:11.730Z,15.96
2022-09-14T06:13:38.580Z,15.91
2022-09-14T06:16:07.482Z,16.18
2022-09-14T06:18:35.363Z,16.31
2022-09-14T06:21:03.073Z,16.38
2022-09-14T06:23:30.858Z,16.38
2022-09-14T06:25:59.321Z,16.57
2022-09-14T06:28:26.791Z,16.49
2022-09-14T06:30:53.323Z,16.73
2022-09-14T06:33:20.330Z,16.74
2022-09-14T06:35:57.537Z,16.95
2022-09-14T06:38:25.053Z,16.74
2022-09-14T06:40:59.600Z,17.07
2022-09-14T06:43:28.093Z,17.06
2022-09-14T06:46:06.183Z,17.20
2022-09-14T06:48:36.031Z,17.27
2022-09-14T06:51:24.907Z,17.35
2022-09-14T06:53:52.118Z,17.35
2022-09-14T06:56:18.915Z,17.22
2022-09-14T06:58:45.453Z,17.34
2022-09-14T07:01:14.984Z,17.45
2022-09-14T07:03:44.032Z,17.50
2022-09-14T07:06:16.657Z,17.46
2022-09-14T07:08:44.214Z,17.50
2022-09-14T07:11:13.134Z,17.55
2022-09-14T07:13:39.873Z,17.49
2022-09-14T07:16:06.845Z,17.61
2022-09-14T07:18:34.226Z,17.49
2022-09-14T07:21:12.559Z,17.65
2022-09-14T07:23:41.594Z,17.81
2022-09-14T07:26:11.457Z,17.89
2022-09-14T07:28:38.417Z,17.90
2022-09-14T07:31:14.020Z,17.85
2022-09-14T07:33:40.420Z,18.07
2022-09-14T07:36:08.299Z,18.08
2022-09-14T07:38:51.682Z,18.32
2022-09-14T07:41:24.163Z,18.37
2022-09-14T07:43:52.247Z,18.42
2022-09-14T07:46:20.462Z,18.58
2022-09-14T07:48:47.725Z,18.68
2022-09-14T07:51:16.511Z,18.78
2022-09-14T07:53:43.473Z,18.89
2022-09-14T07:56:13.469Z,18.71
2022-09-14T07:58:40.174Z,19.15
2022-09-14T08:01:09.360Z,19.21
2022-09-14T08:03:43.377Z,19.31
2022-09-14T08:06:15.791Z,19.27
2022-09-14T08:08:44.357Z,19.46
2022-09-14T08:11:31.525Z,19.65
2022-09-14T08:14:04.635Z,19.80
2022-09-14T08:16:32.810Z,19.84
2022-09-14T08:19:02.110Z,20.06
2022-09-14T08:21:30.329Z,20.18
2022-09-14T08:23:58.189Z,20.26
2022-09-14T08:26:27.347Z,20.29
2022-09-14T08:28:55.460Z,20.50
2022-09-14T08:31:27.251Z,20.58
2022-09-14T08:34:00.105Z,20.70
2022-09-14T08:36:29.781Z,20.61
2022-09-14T08:38:56.196Z,20.93
2022-09-14T08:41:43.877Z,21.14
2022-09-14T08:44:13.309Z,21.23
2022-09-14T08:46:46.340Z,21.21
2022-09-14T08:49:27.595Z,21.20
2022-09-14T08:51:54.975Z,21.50
2022-09-14T08:54:21.505Z,21.65
2022-09-14T08:56:57.640Z,21.50
2022-09-14T08:59:38.559Z,21.82
2022-09-14T09:02:42.601Z,21.95
2022-09-14T09:05:15.114Z,22.03
2022-09-14T09:07:57.331Z,21.92
2022-09-14T09:10:27.046Z,22.27
2022-09-14T09:13:00.625Z,22.26
2022-09-14T09:15:32.511Z,22.52
2022-09-14T09:18:05.402Z,22.61
2022-09-14T09:20:47.653Z,22.79
2022-09-14T09:23:19.730Z,22.90
2022-09-14T09:25:46.077Z,23.01
2022-09-14T09:28:13.950Z,22.95
2022-09-14T09:30:41.357Z,23.20
2022-09-14T09:33:20.055Z,23.27
2022-09-14T09:35:46.597Z,23.23
2022-09-14T09:38:16.107Z,23.16
2022-09-14T09:40:49.202Z,23.10
2022-09-14T09:43:33.335Z,22.96
2022-09-14T09:46:07.541Z,22.93
2022-09-14T09:48:45.400Z,23.04
2022-09-14T09:51:27.020Z,23.10
2022-09-14T09:53:58.201Z,22.99
2022-09-14T09:56:31.418Z,22.97
2022-09-14T09:58:57.975Z,23.07
2022-09-14T10:01:29.230Z,22.93
2022-09-14T10:04:03.804Z,22.94
2022-09-14T10:06:30.630Z,22.75
2022-09-14T10:08:58.226Z,22.64
2022-09-14T10:11:37.653Z,22.59
2022-09-14T10:14:06.516Z,22.42
2022-09-14T10:16:42.050Z,22.26
2022-09-14T10:19:20.389Z,22.15
2022-09-14T10:22:17.196Z,22.04
2022-09-14T10:24:56.596Z,21.79
2022-09-14T10:27:46.110Z,21.90
2022-09-14T10:30:21.629Z,21.76
2022-09-14T10:33:00.281Z,21.79
2022-09-14T10:35:58.525Z,21.76
2022-09-14T10:38:32.421Z,21.73
2022-09-14T10:41:13.119Z,21.71
2022-09-14T10:44:01.085Z,21.73
2022-09-14T10:46:40.313Z,21.65
2022-09-14T10:49:29.237Z,21.81
2022-09-14T10:52:12.183Z,21.87
2022-09-14T10:54:58.017Z,21.97
2022-09-14T10:57:44.067Z,22.03
2022-09-14T11:00:20.201Z,22.20
2022-09-14T11:03:19.580Z,22.39
2022-09-14T11:05:55.489Z,22.52
2022-09-14T11:08:32.924Z,22.75
2022-09-14T11:11:14.323Z,22.98
2022-09-14T11:14:04.702Z,23.18
2022-09-14T11:17:09.019Z,23.32
2022-09-14T11:19:59.458Z,23.16
2022-09-14T11:22:41.679Z,23.18
2022-09-14T11:25:20.424Z,23.02
2022-09-14T11:27:52.495Z,22.86
2022-09-14T11:30:22.126Z,22.65
2022-09-14T11:33:16.700Z,22.57
2022-09-14T11:35:48.315Z,22.32
2022-09-14T11:38:28.435Z,22.14
2022-09-14T11:41:05.506Z,22.22
2022-09-14T11:43:46.945Z,21.84
2022-09-14T11:46:19.733Z,21.78
2022-09-14T11:49:14.525Z,21.73
2022-09-14T11:52:20.810Z,21.70
2022-09-14T11:54:48.725Z,21.56
2022-09-14T11:57:29.657Z,21.52
2022-09-14T11:59:58.857Z,21.37
2022-09-14T12:02:25.252Z,21.50
2022-09-14T12:05:10.418Z,21.54
2022-09-14T12:07:39.939Z,21.58
2022-09-14T12:10:15.460Z,21.70
2022-09-14T12:12:43.208Z,21.64
2022-09-14T12:15:24.818Z,22.18
2022-09-14T12:17:53.084Z,22.39
2022-09-14T12:20:37.773Z,22.65
2022-09-14T12:23:32.643Z,22.77
2022-09-14T12:26:11.158Z,22.82
2022-09-14T12:28:37.814Z,22.68
2022-09-14T12:31:04.307Z,22.53
2022-09-14T12:33:33.518Z,22.39
2022-09-14T12:36:00.632Z,22.19
2022-09-14T12:38:30.199Z,22.14
2022-09-14T12:40:58.382Z,21.99
2022-09-14T12:43:34.450Z,21.89
2022-09-14T12:46:07.989Z,21.80
2022-09-14T12:48:47.174Z,21.79
2022-09-14T12:51:29.093Z,21.86
2022-09-14T12:54:01.445Z,21.87
2022-09-14T12:56:51.021Z,21.73
2022-09-14T12:59:29.448Z,22.05
2022-09-14T13:02:23.351Z,22.19
2022-09-14T13:04:54.432Z,22.23
2022-09-14T13:07:23.080Z,22.36
2022-09-14T13:09:56.654Z,22.43
2022-09-14T13:12:34.634Z,22.51
2022-09-14T13:15:05.856Z,22.45
2022-09-14T13:17:32.262Z,22.37
2022-09-14T13:20:02.537Z,22.14
2022-09-14T13:22:31.832Z,22.20
2022-09-14T13:25:01.233Z,22.14
2022-09-14T13:27:37.104Z,22.13
2022-09-14T13:30:21.781Z,22.10
2022-09-14T13:32:50.880Z,21.90
2022-09-14T13:35:28.252Z,22.04
2022-09-14T13:37:55.259Z,21.97
2022-09-14T13:40:30.421Z,22.01
2022-09-14T13:42:58.808Z,22.01
2022-09-14T13:45:25.671Z,22.09
2022-09-14T13:47:53.617Z,22.15
2022-09-14T13:50:23.949Z,22.20
2022-09-14T13:53:01.773Z,22.15
2022-09-14T13:55:49.847Z,22.29
2022-09-14T13:58:19.247Z,22.27
2022-09-14T14:01:06.065Z,22.33
2022-09-14T14:03:39.029Z,22.31
2022-09-14T14:06:22.610Z,22.31
2022-09-14T14:09:05.774Z,22.38
2022-09-14T14:11:39.150Z,22.37
2022-09-14T14:14:30.888Z,22.38
2022-09-14T14:17:13.424Z,22.20
2022-09-14T14:19:40.916Z,22.25
2022-09-14T14:22:19.044Z,22.22
2022-09-14T14:25:12.207Z,22.14
2022-09-14T14:27:35.950Z,22.34
2022-09-14T14:30:13.151Z,22.31
2022-09-14T14:32:39.612Z,22.27
2022-09-14T14:35:19.959Z,22.26
2022-09-14T14:37:47.740Z,22.19
2022-09-14T14:40:16.193Z,22.10
2022-09-14T14:42:43.745Z,22.06
2022-09-14T14:45:17.775Z,22.02
2022-09-14T14:47:45.646Z,21.87
2022-09-14T14:50:17.806Z,21.94
2022-09-14T14:52:47.301Z,21.94
2022-09-14T14:55:14.639Z,21.94
2022-09-14T14:57:41.146Z,22.12
2022-09-14T15:00:17.459Z,22.21
2022-09-14T15:02:44.186Z,22.52
2022-09-14T15:05:11.741Z,22.65
2022-09-14T15:07:38.685Z,22.59
2022-09-14T15:10:06.263Z,22.82
2022-09-14T15:12:33.290Z,22.73
2022-09-14T15:15:00.399Z,22.79
2022-09-14T15:17:26.863Z,22.71
2022-09-14T15:19:53.510Z,22.42
2022-09-14T15:22:19.936Z,22.48
2022-09-14T15:24:46.321Z,22.37
2022-09-14T15:27:12.973Z,22.26
2022-09-14T15:29:39.449Z,22.16
2022-09-14T15:32:05.952Z,22.04
2022-09-14T15:34:32.436Z,21.86
2022-09-14T15:36:59.084Z,21.87
2022-09-14T15:39:28.539Z,21.82
2022-09-14T15:41:56.316Z,21.74
2022-09-14T15:44:23.196Z,21.66
2022-09-14T15:46:50.215Z,21.65
2022-09-14T15:49:20.630Z,21.65
2022-09-14T15:51:49.955Z,21.62
2022-09-14T15:54:17.723Z,21.67
2022-09-14T15:56:52.626Z,21.69
2022-09-14T15:59:20.663Z,21.64
2022-09-14T16:01:47.835Z,21.34
2022-09-14T16:04:15.015Z,21.38
2022-09-14T16:06:41.613Z,21.33
2022-09-14T16:09:10.652Z,21.32
2022-09-14T16:11:38.120Z,21.23
2022-09-14T16:14:05.981Z,21.19
2022-09-14T16:16:34.065Z,20.99
2022-09-14T16:19:08.678Z,21.22
2022-09-14T16:21:35.263Z,21.17
2022-09-14T16:24:07.181Z,21.18
2022-09-14T16:26:35.983Z,21.22
2022-09-14T16:29:02.970Z,21.19
2022-09-14T16:31:33.155Z,21.16
2022-09-14T16:34:08.342Z,21.06
2022-09-14T16:36:37.712Z,20.97
2022-09-14T16:39:09.368Z,20.78
2022-09-14T16:41:38.141Z,20.82
2022-09-14T16:44:06.019Z,20.61
2022-09-14T16:46:33.778Z,20.61
2022-09-14T16:49:00.457Z,20.46
2022-09-14T16:51:30.464Z,20.45
2022-09-14T16:53:59.271Z,20.20
2022-09-14T16:56:28.389Z,20.18
2022-09-14T16:58:56.238Z,20.07
2022-09-14T17:01:28.745Z,20.00
2022-09-14T17:03:57.785Z,19.92
2022-09-14T17:06:27.007Z,19.67
2022-09-14T17:08:55.294Z,19.75
2022-09-14T17:11:22.993Z,19.58
2022-09-14T17:13:49.774Z,19.45
2022-09-14T17:16:18.750Z,19.34
2022-09-14T17:18:48.744Z,19.30
2022-09-14T17:21:18.414Z,19.20
2022-09-14T17:23:45.210Z,19.12
2022-09-14T17:26:13.508Z,19.02
2022-09-14T17:28:40.708Z,18.92
2022-09-14T17:31:08.538Z,18.64
2022-09-14T17:33:35.749Z,18.49
2022-09-14T17:36:04.753Z,18.63
2022-09-14T17:38:36.669Z,18.71
2022-09-14T17:41:05.103Z,18.63
2022-09-14T17:43:33.296Z,18.35
2022-09-14T17:45:59.829Z,18.48
2022-09-14T17:48:27.948Z,18.21
2022-09-14T17:50:54.865Z,18.30
2022-09-14T17:53:21.344Z,18.23
2022-09-14T17:55:48.045Z,18.10
2022-09-14T17:58:19.498Z,18.16
2022-09-14T18:00:46.352Z,18.02
2022-09-14T18:03:13.142Z,17.91
2022-09-14T18:05:39.593Z,17.80
2022-09-14T18:08:06.346Z,17.89
2022-09-14T18:10:35.757Z,17.91
2022-09-14T18:13:02.354Z,17.80
2022-09-14T18:15:30.984Z,17.85
2022-09-14T18:17:57.729Z,17.82
2022-09-14T18:20:24.108Z,17.80
2022-09-14T18:22:50.741Z,17.53
2022-09-14T18:25:17.184Z,17.69
2022-09-14T18:27:43.517Z,17.46
2022-09-14T18:30:10.786Z,17.63
2022-09-14T18:32:37.310Z,17.48
2022-09-14T18:35:03.903Z,17.34
2022-09-14T18:37:30.854Z,17.44
2022-09-14T18:39:57.399Z,17.38
2022-09-14T18:42:23.991Z,17.30
2022-09-14T18:44:53.898Z,17.11
2022-09-14T18:47:21.696Z,17.19
2022-09-14T18:49:49.946Z,17.05
2022-09-14T18:52:18.094Z,16.93
2022-09-14T18:54:44.572Z,17.01
2022-09-14T18:57:11.386Z,17.11
2022-09-14T18:59:37.755Z,16.96
2022-09-14T19:02:04.231Z,17.08
2022-09-14T19:04:30.751Z,16.93
2022-09-14T19:06:57.109Z,16.96
2022-09-14T19:09:23.608Z,16.71
2022-09-14T19:11:50.004Z,16.75
2022-09-14T19:14:17.435Z,16.94
2022-09-14T19:16:43.959Z,16.85
2022-09-14T19:19:14.446Z,16.76
2022-09-14T19:21:41.139Z,16.72
2022-09-14T19:24:11.568Z,16.71
2022-09-14T19:26:45.688Z,16.63
2022-09-14T19:29:17.865Z,16.40
2022-09-14T19:31:44.376Z,16.28
2022-09-14T19:34:11.475Z,16.32
2022-09-14T19:36:37.916Z,16.28
2022-09-14T19:39:04.746Z,16.18
2022-09-14T19:41:33.129Z,16.08
2022-09-14T19:44:00.531Z,15.98
2022-09-14T19:46:28.799Z,15.82
2022-09-14T19:48:55.560Z,15.78
2022-09-14T19:51:25.257Z,15.32
2022-09-14T19:53:54.290Z,15.58
2022-09-14T19:56:25.315Z,15.46
2022-09-14T19:58:53.703Z,15.38
2022-09-14T20:01:22.426Z,15.29
2022-09-14T20:03:49.941Z,15.20
2022-09-14T20:06:23.505Z,15.11
2022-09-14T20:08:56.595Z,14.93
2022-09-14T20:11:25.257Z,14.97
2022-09-14T20:13:56.949Z,14.91
2022-09-14T20:16:27.831Z,14.86
2022-09-14T20:18:55.368Z,14.82
2022-09-14T20:21:24.216Z,14.69
2022-09-14T20:24:15.207Z,14.71
2022-09-14T20:26:42.792Z,14.50
2022-09-14T20:29:09.206Z,14.50
2022-09-14T20:31:35.885Z,14.58
2022-09-14T20:34:02.368Z,14.67
2022-09-14T20:36:28.750Z,14.67
2022-09-14T20:38:56.794Z,14.67
2022-09-14T20:41:25.245Z,14.63
2022-09-14T20:43:52.908Z,14.45
2022-09-14T20:46:22.819Z,14.67
2022-09-14T20:48:50.326Z,14.51
2022-09-14T20:51:20.018Z,14.58
2022-09-14T20:53:47.329Z,14.60
2022-09-14T20:56:16.765Z,14.67
2022-09-14T20:58:44.111Z,14.53
2022-09-14T21:01:18.920Z,14.67
2022-09-14T21:03:46.974Z,14.67
2022-09-14T21:06:16.466Z,14.42
2022-09-14T21:08:43.253Z,14.67
2022-09-14T21:11:13.557Z,14.67
2022-09-14T21:13:39.887Z,14.77
2022-09-14T21:16:18.760Z,14.63
2022-09-14T21:18:47.022Z,14.58
2022-09-14T21:21:15.971Z,14.62
2022-09-14T21:23:43.256Z,14.64
2022-09-14T21:26:10.897Z,14.60
2022-09-14T21:28:38.588Z,14.64
2022-09-14T21:31:06.954Z,14.63
2022-09-14T21:33:35.440Z,14.51
2022-09-14T21:36:07.916Z,14.53
2022-09-14T21:38:35.166Z,14.42
2022-09-14T21:41:02.518Z,14.42
2022-09-14T21:43:29.356Z,14.42
2022-09-14T21:45:58.372Z,14.64
2022-09-14T21:48:25.325Z,14.65
2022-09-14T21:51:17.189Z,14.67
2022-09-14T21:53:51.566Z,14.55
2022-09-14T21:56:18.589Z,14.67
2022-09-14T21:58:49.154Z,14.72
2022-09-14T22:01:16.422Z,14.58
2022-09-14T22:03:43.348Z,14.72
2022-09-14T22:06:12.574Z,14.73
2022-09-14T22:08:39.929Z,14.80
2022-09-14T22:11:08.922Z,14.66
2022-09-14T22:13:35.434Z,14.60
2022-09-14T22:16:08.062Z,14.82
2022-09-14T22:18:36.947Z,14.81
2022-09-14T22:21:04.846Z,14.80
2022-09-14T22:23:32.414Z,14.80
2022-09-14T22:25:59.356Z,14.69
2022-09-14T22:28:25.826Z,14.57
2022-09-14T22:30:54.212Z,14.53
2022-09-14T22:33:22.828Z,14.69
2022-09-14T22:35:57.693Z,14.56
2022-09-14T22:38:26.044Z,14.55
2022-09-14T22:41:00.818Z,14.73
2022-09-14T22:43:28.175Z,14.73
2022-09-14T22:45:55.229Z,14.65
2022-09-14T22:48:23.384Z,14.75
2022-09-14T22:50:51.819Z,14.70
2022-09-14T22:53:18.895Z,14.68
2022-09-14T22:55:45.572Z,14.91
2022-09-14T22:58:14.320Z,14.97
2022-09-14T23:00:41.653Z,14.88
2022-09-14T23:03:09.609Z,15.13
2022-09-14T23:05:37.848Z,15.21
2022-09-14T23:08:05.843Z,15.27
2022-09-14T23:10:35.858Z,15.30
2022-09-14T23:13:02.227Z,15.52
2022-09-14T23:15:28.695Z,15.41
2022-09-14T23:17:55.076Z,15.70
2022-09-14T23:20:21.484Z,15.71
2022-09-14T23:22:47.840Z,15.82
2022-09-14T23:25:14.403Z,15.91
2022-09-14T23:27:40.824Z,15.87
2022-09-14T23:30:07.752Z,15.88
2022-09-14T23:32:34.182Z,16.08
2022-09-14T23:35:01.284Z,16.08
2022-09-14T23:37:27.793Z,16.21
2022-09-14T23:39:54.201Z,16.33
2022-09-14T23:42:20.538Z,16.19
2022-09-14T23:44:46.944Z,16.41
2022-09-14T23:47:13.372Z,16.34
2022-09-14T23:49:39.851Z,16.34
2022-09-14T23:52:06.362Z,16.42
2022-09-14T23:54:32.730Z,16.57
2022-09-14T23:56:59.315Z,16.58
2022-09-14T23:59:25.686Z,16.52
